createdAt,value
2017-02-20T00:06:09.274Z,6.71
2017-02-20T00:16:44.628Z,6.8
2017-02-20T00:26:28.625Z,6.98
2017-02-20T00:36:09.333Z,6.89
2017-02-20T00:46:09.322Z,7.02
2017-02-20T00:56:28.231Z,7.08
2017-02-20T01:06:41.743Z,7.01
2017-02-20T01:16:09.293Z,7.16
2017-02-20T01:36:16.318Z,7.2
2017-02-20T02:06:23.544Z,7.22
2017-02-20T02:26:20.807Z,7.01
2017-02-20T02:36:09.579Z,7.23
2017-02-20T02:46:22.816Z,7.31
2017-02-20T03:16:09.459Z,7.38
2017-02-20T03:26:09.426Z,7.55
2017-02-20T03:56:28.525Z,7.71
2017-02-20T04:06:22.024Z,7.77
2017-02-20T04:16:09.530Z,7.85
2017-02-20T04:26:36.203Z,7.84
2017-02-20T04:36:15.529Z,7.94
2017-02-20T04:46:09.652Z,7.84
2017-02-20T04:56:15.494Z,7.87
2017-02-20T05:16:20.669Z,8.03
2017-02-20T05:26:21.107Z,8.08
2017-02-20T05:46:28.027Z,8.11
2017-02-20T05:56:09.523Z,8.15
2017-02-20T06:16:21.586Z,8.03
2017-02-20T06:26:09.613Z,8.18
2017-02-20T06:36:09.549Z,8.26
2017-02-20T06:56:09.580Z,8.1
2017-02-20T07:06:22.713Z,8.29
2017-02-20T07:16:27.825Z,8.47
2017-02-20T07:26:09.675Z,8.42
2017-02-20T07:36:09.666Z,8.45
2017-02-20T07:46:10.556Z,8.47
2017-02-20T08:06:31.682Z,8.57
2017-02-20T08:16:26.566Z,8.63
2017-02-20T08:26:31.251Z,8.75
2017-02-20T08:36:09.838Z,8.68
2017-02-20T08:46:27.796Z,8.75
2017-02-20T08:56:09.710Z,8.83
2017-02-20T09:16:10.274Z,9.15
2017-02-20T09:26:10.085Z,9.21
2017-02-20T10:26:21.442Z,9.58
2017-02-20T10:56:09.752Z,9.75
2017-02-20T11:06:09.827Z,9.76
2017-02-20T11:16:09.807Z,10.09
2017-02-20T11:26:09.870Z,10.24
2017-02-20T11:36:09.822Z,10.26
2017-02-20T11:46:09.872Z,10.33
2017-02-20T11:56:09.807Z,10.14
2017-02-20T12:06:10.021Z,10.07
2017-02-20T12:16:09.808Z,10.22
2017-02-20T12:26:09.806Z,10.28
2017-02-20T12:36:09.891Z,10.32
2017-02-20T12:46:09.966Z,10.21
2017-02-20T12:56:09.919Z,10.21
2017-02-20T13:06:09.975Z,10.25
2017-02-20T13:16:09.955Z,10.28
2017-02-20T13:26:09.964Z,10.37
2017-02-20T13:36:09.939Z,10.4
2017-02-20T13:46:09.995Z,10.42
2017-02-20T13:56:10.009Z,10.52
2017-02-20T14:06:10.009Z,10.47
2017-02-20T14:16:10.427Z,10.52
2017-02-20T14:26:10.025Z,10.55
2017-02-20T14:36:09.958Z,10.63
2017-02-20T14:46:10.043Z,10.51
2017-02-20T14:56:10.066Z,10.51
2017-02-20T15:06:10.063Z,10.44
2017-02-20T15:16:10.015Z,10.53
2017-02-20T15:26:10.088Z,10.42
2017-02-20T15:36:10.015Z,10.34
2017-02-20T15:46:10.149Z,10.39
2017-02-20T15:56:10.113Z,10.37
2017-02-20T16:06:10.072Z,10.43
2017-02-20T16:16:10.108Z,10.33
2017-02-20T16:26:10.146Z,10.36
2017-02-20T16:36:10.121Z,10.53
2017-02-20T16:46:10.165Z,10.43
2017-02-20T16:56:10.153Z,10.51
2017-02-20T17:06:10.118Z,10.36
2017-02-20T17:16:10.159Z,10.52
2017-02-20T17:26:10.127Z,10.47
2017-02-20T17:36:10.186Z,10.44
2017-02-20T17:46:10.181Z,10.53
2017-02-20T17:56:10.202Z,10.63
2017-02-20T18:06:10.159Z,10.7
2017-02-20T18:16:10.154Z,10.71
2017-02-20T18:26:10.120Z,10.71
2017-02-20T18:36:10.157Z,10.63
2017-02-20T18:46:10.149Z,10.71
2017-02-20T18:56:10.147Z,10.74
2017-02-20T19:06:10.194Z,10.65
2017-02-20T19:16:10.191Z,10.74
2017-02-20T19:26:10.186Z,10.84
2017-02-20T19:36:10.559Z,10.71
2017-02-20T19:46:10.212Z,10.8
2017-02-20T19:56:10.199Z,10.81
2017-02-20T20:06:10.298Z,10.84
2017-02-20T20:16:10.242Z,10.86
2017-02-20T20:26:10.255Z,10.86
2017-02-20T20:36:10.305Z,10.92
2017-02-20T20:46:10.245Z,10.96
2017-02-20T20:56:10.258Z,11.03
2017-02-20T21:06:10.279Z,11.11
2017-02-20T21:16:10.293Z,11.2
2017-02-20T21:26:10.321Z,11.25
2017-02-20T21:36:10.282Z,11.31
2017-02-20T21:46:10.308Z,11.43
2017-02-20T21:56:10.688Z,11.43
2017-02-20T22:06:10.384Z,11.46
2017-02-20T22:16:10.429Z,11.52
2017-02-20T22:26:10.395Z,11.59
2017-02-20T22:36:10.484Z,11.5
2017-02-20T22:46:12.898Z,11.41
2017-02-20T22:56:10.468Z,11.44
2017-02-20T23:06:10.529Z,11.47
2017-02-20T23:16:10.484Z,11.38
2017-02-20T23:26:10.439Z,11.32
2017-02-20T23:36:10.519Z,11.27
2017-02-20T23:46:10.481Z,11.35
2017-02-20T23:56:10.524Z,11.29
